sensor_id;sensor_type;location;lat;lon;timestamp;pressure;altitude;pressure_sealevel;temperature;humidity
62508;BME280;48556;51.972;4.624;2022-12-20T00:01:43;101266.53;;;12.40;77.94
62508;BME280;48556;51.972;4.624;2022-12-20T00:04:10;101260.63;;;12.18;78.63
62508;BME280;48556;51.972;4.624;2022-12-20T00:06:35;101260.88;;;11.93;79.23
62508;BME280;48556;51.972;4.624;2022-12-20T00:09:04;101261.69;;;12.03;79.72
62508;BME280;48556;51.972;4.624;2022-12-20T00:11:31;101252.88;;;12.05;79.48
62508;BME280;48556;51.972;4.624;2022-12-20T00:13:57;101253.81;;;12.00;79.71
62508;BME280;48556;51.972;4.624;2022-12-20T00:16:26;101249.31;;;12.09;79.72
62508;BME280;48556;51.972;4.624;2022-12-20T00:18:54;101263.03;;;12.36;78.57
62508;BME280;48556;51.972;4.624;2022-12-20T00:21:21;101269.91;;;12.50;77.96
62508;BME280;48556;51.972;4.624;2022-12-20T00:23:47;101267.25;;;12.51;77.49
62508;BME280;48556;51.972;4.624;2022-12-20T00:26:16;101270.13;;;12.34;78.15
62508;BME280;48556;51.972;4.624;2022-12-20T00:28:42;101259.66;;;12.28;78.43
62508;BME280;48556;51.972;4.624;2022-12-20T00:31:09;101261.31;;;12.35;78.74
62508;BME280;48556;51.972;4.624;2022-12-20T00:33:36;101268.53;;;12.18;79.09
62508;BME280;48556;51.972;4.624;2022-12-20T00:36:03;101262.38;;;12.20;79.36
62508;BME280;48556;51.972;4.624;2022-12-20T00:38:29;101258.81;;;12.23;79.90
62508;BME280;48556;51.972;4.624;2022-12-20T00:41:10;101247.34;;;12.27;80.74
62508;BME280;48556;51.972;4.624;2022-12-20T00:43:37;101240.41;;;12.21;81.18
62508;BME280;48556;51.972;4.624;2022-12-20T00:46:04;101242.91;;;12.29;82.15
62508;BME280;48556;51.972;4.624;2022-12-20T00:48:31;101230.25;;;11.83;85.05
62508;BME280;48556;51.972;4.624;2022-12-20T00:51:05;101237.13;;;11.99;85.42
62508;BME280;48556;51.972;4.624;2022-12-20T00:53:31;101235.69;;;11.67;87.30
62508;BME280;48556;51.972;4.624;2022-12-20T00:55:58;101220.72;;;11.69;88.13
62508;BME280;48556;51.972;4.624;2022-12-20T00:58:24;101224.28;;;11.65;89.58
62508;BME280;48556;51.972;4.624;2022-12-20T01:00:51;101217.31;;;11.61;90.02
62508;BME280;48556;51.972;4.624;2022-12-20T01:03:17;101205.72;;;11.77;89.59
62508;BME280;48556;51.972;4.624;2022-12-20T01:06:00;101209.34;;;11.67;90.58
62508;BME280;48556;51.972;4.624;2022-12-20T01:08:28;101191.25;;;11.33;92.97
62508;BME280;48556;51.972;4.624;2022-12-20T01:11:10;101181.47;;;11.48;92.20
62508;BME280;48556;51.972;4.624;2022-12-20T01:13:40;101199.09;;;11.39;92.96
62508;BME280;48556;51.972;4.624;2022-12-20T01:16:28;101209.44;;;11.58;92.07
62508;BME280;48556;51.972;4.624;2022-12-20T01:18:54;101206.19;;;11.29;92.93
62508;BME280;48556;51.972;4.624;2022-12-20T01:21:23;101198.16;;;11.43;93.08
62508;BME280;48556;51.972;4.624;2022-12-20T01:23:50;101195.63;;;11.37;93.29
62508;BME280;48556;51.972;4.624;2022-12-20T01:26:18;101190.38;;;11.31;94.20
62508;BME280;48556;51.972;4.624;2022-12-20T01:28:46;101186.97;;;11.20;94.50
62508;BME280;48556;51.972;4.624;2022-12-20T01:31:15;101189.53;;;11.29;94.99
62508;BME280;48556;51.972;4.624;2022-12-20T01:33:42;101188.53;;;11.42;93.36
62508;BME280;48556;51.972;4.624;2022-12-20T01:36:11;101193.22;;;11.11;94.88
62508;BME280;48556;51.972;4.624;2022-12-20T01:38:37;101186.25;;;11.04;96.22
62508;BME280;48556;51.972;4.624;2022-12-20T01:41:03;101185.75;;;11.56;94.13
62508;BME280;48556;51.972;4.624;2022-12-20T01:43:52;101182.44;;;11.37;93.49
62508;BME280;48556;51.972;4.624;2022-12-20T01:46:20;101170.72;;;11.66;93.15
62508;BME280;48556;51.972;4.624;2022-12-20T01:49:28;101168.16;;;11.60;92.74
62508;BME280;48556;51.972;4.624;2022-12-20T01:52:02;101175.84;;;11.78;92.13
62508;BME280;48556;51.972;4.624;2022-12-20T01:57:03;101171.06;;;11.32;93.75
62508;BME280;48556;51.972;4.624;2022-12-20T01:59:35;101176.38;;;11.29;94.66
62508;BME280;48556;51.972;4.624;2022-12-20T02:02:09;101162.94;;;11.54;92.71
62508;BME280;48556;51.972;4.624;2022-12-20T02:04:35;101170.84;;;11.57;92.57
62508;BME280;48556;51.972;4.624;2022-12-20T02:07:02;101176.34;;;11.32;93.69
62508;BME280;48556;51.972;4.624;2022-12-20T02:09:31;101172.00;;;11.28;94.13
62508;BME280;48556;51.972;4.624;2022-12-20T02:31:05;101168.69;;;11.04;96.00
62508;BME280;48556;51.972;4.624;2022-12-20T02:33:32;101156.19;;;11.28;95.26
62508;BME280;48556;51.972;4.624;2022-12-20T02:35:57;101154.63;;;11.08;96.21
62508;BME280;48556;51.972;4.624;2022-12-20T02:38:34;101158.78;;;11.33;94.74
62508;BME280;48556;51.972;4.624;2022-12-20T02:41:05;101156.66;;;11.67;93.42
62508;BME280;48556;51.972;4.624;2022-12-20T02:43:36;101142.91;;;11.40;93.55
62508;BME280;48556;51.972;4.624;2022-12-20T02:46:23;101148.09;;;11.48;93.28
62508;BME280;48556;51.972;4.624;2022-12-20T02:48:53;101137.47;;;11.56;92.04
62508;BME280;48556;51.972;4.624;2022-12-20T02:51:22;101133.97;;;11.54;92.05
62508;BME280;48556;51.972;4.624;2022-12-20T02:53:50;101141.09;;;11.49;92.17
62508;BME280;48556;51.972;4.624;2022-12-20T02:56:29;101131.09;;;11.75;91.44
62508;BME280;48556;51.972;4.624;2022-12-20T02:59:16;101136.44;;;11.72;91.97
62508;BME280;48556;51.972;4.624;2022-12-20T03:01:48;101146.22;;;11.58;90.92
62508;BME280;48556;51.972;4.624;2022-12-20T03:04:17;101130.03;;;11.92;90.72
62508;BME280;48556;51.972;4.624;2022-12-20T03:07:00;101131.91;;;11.82;90.22
62508;BME280;48556;51.972;4.624;2022-12-20T03:09:27;101135.41;;;11.83;90.63
62508;BME280;48556;51.972;4.624;2022-12-20T03:11:53;101135.69;;;11.58;91.08
62508;BME280;48556;51.972;4.624;2022-12-20T03:14:19;101127.63;;;11.75;90.31
62508;BME280;48556;51.972;4.624;2022-12-20T03:16:44;101141.50;;;11.88;90.48
62508;BME280;48556;51.972;4.624;2022-12-20T03:19:10;101146.97;;;11.72;90.65
62508;BME280;48556;51.972;4.624;2022-12-20T03:21:35;101134.63;;;11.74;90.23
62508;BME280;48556;51.972;4.624;2022-12-20T03:24:01;101111.63;;;11.87;89.44
62508;BME280;48556;51.972;4.624;2022-12-20T03:26:26;101136.19;;;11.91;89.11
62508;BME280;48556;51.972;4.624;2022-12-20T03:28:52;101127.91;;;12.22;87.45
62508;BME280;48556;51.972;4.624;2022-12-20T03:31:17;101122.94;;;12.00;87.97
62508;BME280;48556;51.972;4.624;2022-12-20T03:33:43;101119.91;;;12.28;88.04
62508;BME280;48556;51.972;4.624;2022-12-20T03:36:08;101130.31;;;11.67;89.92
62508;BME280;48556;51.972;4.624;2022-12-20T03:38:34;101124.75;;;11.95;89.00
62508;BME280;48556;51.972;4.624;2022-12-20T03:40:59;101110.84;;;11.80;89.34
62508;BME280;48556;51.972;4.624;2022-12-20T03:43:25;101122.72;;;12.16;88.32
62508;BME280;48556;51.972;4.624;2022-12-20T03:45:53;101118.41;;;12.10;87.92
62508;BME280;48556;51.972;4.624;2022-12-20T03:48:19;101105.38;;;11.99;88.62
62508;BME280;48556;51.972;4.624;2022-12-20T03:50:44;101120.84;;;12.25;87.84
62508;BME280;48556;51.972;4.624;2022-12-20T03:53:10;101132.16;;;12.30;87.58
62508;BME280;48556;51.972;4.624;2022-12-20T03:55:35;101135.75;;;12.28;87.82
62508;BME280;48556;51.972;4.624;2022-12-20T03:58:01;101124.59;;;12.07;88.56
62508;BME280;48556;51.972;4.624;2022-12-20T04:00:27;101121.06;;;12.08;89.32
62508;BME280;48556;51.972;4.624;2022-12-20T04:02:52;101126.09;;;12.25;88.54
62508;BME280;48556;51.972;4.624;2022-12-20T04:05:18;101120.22;;;12.05;89.96
62508;BME280;48556;51.972;4.624;2022-12-20T04:07:44;101126.88;;;12.30;88.44
62508;BME280;48556;51.972;4.624;2022-12-20T04:10:10;101111.28;;;12.17;89.42
62508;BME280;48556;51.972;4.624;2022-12-20T04:12:36;101113.72;;;12.29;89.88
62508;BME280;48556;51.972;4.624;2022-12-20T04:15:02;101120.84;;;12.24;91.25
62508;BME280;48556;51.972;4.624;2022-12-20T04:17:28;101108.22;;;12.44;90.78
62508;BME280;48556;51.972;4.624;2022-12-20T04:19:53;101108.09;;;12.54;90.29
62508;BME280;48556;51.972;4.624;2022-12-20T04:22:19;101108.03;;;12.57;90.62
62508;BME280;48556;51.972;4.624;2022-12-20T04:24:45;101104.00;;;12.34;91.82
62508;BME280;48556;51.972;4.624;2022-12-20T04:27:11;101107.19;;;11.94;94.13
62508;BME280;48556;51.972;4.624;2022-12-20T04:29:36;101116.72;;;12.04;94.76
62508;BME280;48556;51.972;4.624;2022-12-20T04:32:02;101099.25;;;11.97;95.84
62508;BME280;48556;51.972;4.624;2022-12-20T04:34:27;101108.13;;;11.87;96.68
62508;BME280;48556;51.972;4.624;2022-12-20T04:36:53;101114.88;;;12.09;97.41
62508;BME280;48556;51.972;4.624;2022-12-20T04:39:19;101100.00;;;12.05;97.54
62508;BME280;48556;51.972;4.624;2022-12-20T04:41:45;101112.50;;;11.89;98.88
62508;BME280;48556;51.972;4.624;2022-12-20T04:44:10;101101.22;;;11.79;99.52
62508;BME280;48556;51.972;4.624;2022-12-20T04:46:36;101090.69;;;11.78;99.96
62508;BME280;48556;51.972;4.624;2022-12-20T04:49:02;101080.00;;;11.90;100.00
62508;BME280;48556;51.972;4.624;2022-12-20T04:51:28;101079.75;;;12.09;99.02
62508;BME280;48556;51.972;4.624;2022-12-20T04:53:54;101080.66;;;12.06;99.02
62508;BME280;48556;51.972;4.624;2022-12-20T04:56:23;101073.59;;;12.11;98.25
62508;BME280;48556;51.972;4.624;2022-12-20T04:58:51;101074.50;;;12.07;99.07
62508;BME280;48556;51.972;4.624;2022-12-20T05:01:18;101065.56;;;12.18;98.11
62508;BME280;48556;51.972;4.624;2022-12-20T05:03:44;101057.66;;;12.18;97.97
62508;BME280;48556;51.972;4.624;2022-12-20T05:06:10;101052.88;;;12.43;96.72
62508;BME280;48556;51.972;4.624;2022-12-20T05:08:36;101051.09;;;12.45;96.35
62508;BME280;48556;51.972;4.624;2022-12-20T05:11:03;101048.56;;;12.37;96.54
62508;BME280;48556;51.972;4.624;2022-12-20T05:13:30;101039.72;;;12.41;96.28
62508;BME280;48556;51.972;4.624;2022-12-20T05:15:56;101032.94;;;12.25;97.35
62508;BME280;48556;51.972;4.624;2022-12-20T05:18:23;101031.94;;;12.34;97.24
62508;BME280;48556;51.972;4.624;2022-12-20T05:20:50;101038.91;;;12.36;96.07
62508;BME280;48556;51.972;4.624;2022-12-20T05:23:38;101033.22;;;12.62;95.74
62508;BME280;48556;51.972;4.624;2022-12-20T05:26:23;101032.63;;;12.46;95.17
62508;BME280;48556;51.972;4.624;2022-12-20T05:28:49;101035.16;;;12.51;95.34
62508;BME280;48556;51.972;4.624;2022-12-20T05:31:14;101024.03;;;12.83;92.68
62508;BME280;48556;51.972;4.624;2022-12-20T05:33:40;101026.81;;;12.77;92.59
62508;BME280;48556;51.972;4.624;2022-12-20T05:36:06;101033.94;;;12.71;93.19
62508;BME280;48556;51.972;4.624;2022-12-20T05:38:31;101025.75;;;12.86;92.35
62508;BME280;48556;51.972;4.624;2022-12-20T05:40:57;101021.41;;;12.83;92.12
62508;BME280;48556;51.972;4.624;2022-12-20T05:43:22;101030.25;;;12.79;91.80
62508;BME280;48556;51.972;4.624;2022-12-20T05:45:52;101016.47;;;12.65;92.47
62508;BME280;48556;51.972;4.624;2022-12-20T05:48:18;101020.78;;;12.69;92.32
62508;BME280;48556;51.972;4.624;2022-12-20T05:50:46;101018.03;;;12.77;91.58
62508;BME280;48556;51.972;4.624;2022-12-20T05:53:12;101011.16;;;12.67;91.12
62508;BME280;48556;51.972;4.624;2022-12-20T05:55:50;101012.50;;;12.41;91.88
62508;BME280;48556;51.972;4.624;2022-12-20T05:58:16;101025.75;;;12.86;89.98
62508;BME280;48556;51.972;4.624;2022-12-20T06:00:43;101026.88;;;12.73;89.84
62508;BME280;48556;51.972;4.624;2022-12-20T06:03:10;101024.22;;;12.74;89.93
62508;BME280;48556;51.972;4.624;2022-12-20T06:05:37;101019.78;;;12.76;89.52
62508;BME280;48556;51.972;4.624;2022-12-20T06:08:04;101030.38;;;12.73;88.84
62508;BME280;48556;51.972;4.624;2022-12-20T06:10:31;101028.75;;;12.66;88.46
62508;BME280;48556;51.972;4.624;2022-12-20T06:12:56;101016.47;;;12.65;89.45
62508;BME280;48556;51.972;4.624;2022-12-20T06:15:22;101014.56;;;12.73;88.48
62508;BME280;48556;51.972;4.624;2022-12-20T06:17:47;101005.31;;;12.97;86.55
62508;BME280;48556;51.972;4.624;2022-12-20T06:20:13;101020.41;;;12.91;86.83
62508;BME280;48556;51.972;4.624;2022-12-20T06:22:38;101014.97;;;12.98;86.56
62508;BME280;48556;51.972;4.624;2022-12-20T06:25:05;101003.84;;;12.82;86.80
62508;BME280;48556;51.972;4.624;2022-12-20T06:27:31;101003.97;;;12.75;86.89
62508;BME280;48556;51.972;4.624;2022-12-20T06:29:57;101009.47;;;12.62;87.69
62508;BME280;48556;51.972;4.624;2022-12-20T06:32:22;101007.66;;;12.66;87.74
62508;BME280;48556;51.972;4.624;2022-12-20T06:34:49;101005.47;;;12.90;85.55
62508;BME280;48556;51.972;4.624;2022-12-20T06:37:15;101018.75;;;12.83;85.19
62508;BME280;48556;51.972;4.624;2022-12-20T06:39:40;101034.59;;;12.83;85.89
62508;BME280;48556;51.972;4.624;2022-12-20T06:42:06;101028.75;;;12.66;85.97
62508;BME280;48556;51.972;4.624;2022-12-20T06:44:31;101018.44;;;13.02;85.16
62508;BME280;48556;51.972;4.624;2022-12-20T06:46:57;101020.84;;;13.14;84.21
62508;BME280;48556;51.972;4.624;2022-12-20T06:49:22;101008.06;;;12.91;84.15
62508;BME280;48556;51.972;4.624;2022-12-20T06:51:48;101009.91;;;12.86;84.06
62508;BME280;48556;51.972;4.624;2022-12-20T06:54:15;101012.25;;;13.02;83.61
62508;BME280;48556;51.972;4.624;2022-12-20T06:56:40;101010.00;;;12.81;84.67
62508;BME280;48556;51.972;4.624;2022-12-20T06:59:06;101016.19;;;12.80;84.60
62508;BME280;48556;51.972;4.624;2022-12-20T07:01:31;101009.59;;;13.03;83.19
62508;BME280;48556;51.972;4.624;2022-12-20T07:03:57;101011.78;;;12.81;84.32
62508;BME280;48556;51.972;4.624;2022-12-20T07:06:23;101011.56;;;12.92;83.69
62508;BME280;48556;51.972;4.624;2022-12-20T07:08:48;101013.28;;;12.94;83.01
62508;BME280;48556;51.972;4.624;2022-12-20T07:11:15;101026.88;;;13.20;82.72
62508;BME280;48556;51.972;4.624;2022-12-20T07:13:41;101036.56;;;12.72;84.26
62508;BME280;48556;51.972;4.624;2022-12-20T07:16:06;101033.16;;;13.14;83.70
62508;BME280;48556;51.972;4.624;2022-12-20T07:18:32;101016.44;;;13.13;84.42
62508;BME280;48556;51.972;4.624;2022-12-20T07:21:01;101017.72;;;12.94;84.55
62508;BME280;48556;51.972;4.624;2022-12-20T07:23:27;101022.53;;;13.19;84.14
62508;BME280;48556;51.972;4.624;2022-12-20T07:25:58;101034.44;;;12.93;85.10
62508;BME280;48556;51.972;4.624;2022-12-20T07:28:25;101031.09;;;12.83;86.44
62508;BME280;48556;51.972;4.624;2022-12-20T07:30:52;101031.06;;;12.85;86.43
62508;BME280;48556;51.972;4.624;2022-12-20T07:33:17;101032.97;;;12.76;86.40
62508;BME280;48556;51.972;4.624;2022-12-20T07:35:43;101018.50;;;12.97;86.01
62508;BME280;48556;51.972;4.624;2022-12-20T07:38:11;101030.97;;;12.91;85.60
62508;BME280;48556;51.972;4.624;2022-12-20T07:40:39;101024.59;;;13.01;85.42
62508;BME280;48556;51.972;4.624;2022-12-20T07:43:06;101023.38;;;12.72;87.31
62508;BME280;48556;51.972;4.624;2022-12-20T07:45:33;101028.56;;;12.75;87.52
62508;BME280;48556;51.972;4.624;2022-12-20T07:47:59;101032.41;;;12.59;89.05
62508;BME280;48556;51.972;4.624;2022-12-20T07:50:26;101015.19;;;12.86;88.74
62508;BME280;48556;51.972;4.624;2022-12-20T07:52:53;101025.16;;;12.72;89.21
62508;BME280;48556;51.972;4.624;2022-12-20T07:55:19;101024.22;;;12.74;89.21
62508;BME280;48556;51.972;4.624;2022-12-20T07:57:54;101023.38;;;12.72;90.26
62508;BME280;48556;51.972;4.624;2022-12-20T08:00:22;101017.19;;;12.22;92.03
62508;BME280;48556;51.972;4.624;2022-12-20T08:03:04;101024.25;;;12.20;92.28
62508;BME280;48556;51.972;4.624;2022-12-20T08:05:33;101032.25;;;12.13;93.26
62508;BME280;48556;51.972;4.624;2022-12-20T08:08:01;101023.34;;;12.21;93.01
62508;BME280;48556;51.972;4.624;2022-12-20T08:10:30;101017.69;;;12.45;92.42
62508;BME280;48556;51.972;4.624;2022-12-20T08:12:57;101022.31;;;12.31;92.24
62508;BME280;48556;51.972;4.624;2022-12-20T08:15:24;101034.13;;;12.60;92.20
62508;BME280;48556;51.972;4.624;2022-12-20T08:17:49;101030.38;;;12.22;92.55
62508;BME280;48556;51.972;4.624;2022-12-20T08:20:15;101024.16;;;12.26;92.56
62508;BME280;48556;51.972;4.624;2022-12-20T08:22:41;101017.75;;;12.42;91.38
62508;BME280;48556;51.972;4.624;2022-12-20T08:25:07;101028.09;;;12.53;89.98
62508;BME280;48556;51.972;4.624;2022-12-20T08:27:33;101010.53;;;12.52;90.14
62508;BME280;48556;51.972;4.624;2022-12-20T08:29:58;101015.28;;;12.30;91.29
62508;BME280;48556;51.972;4.624;2022-12-20T08:32:24;101017.63;;;12.48;90.62
62508;BME280;48556;51.972;4.624;2022-12-20T08:34:51;101018.34;;;12.57;89.56
62508;BME280;48556;51.972;4.624;2022-12-20T08:37:16;101024.53;;;12.56;89.52
62508;BME280;48556;51.972;4.624;2022-12-20T08:39:42;101017.19;;;12.73;90.11
62508;BME280;48556;51.972;4.624;2022-12-20T08:42:11;101013.84;;;12.63;89.91
62508;BME280;48556;51.972;4.624;2022-12-20T08:44:37;101017.81;;;12.38;92.31
62508;BME280;48556;51.972;4.624;2022-12-20T08:47:03;101020.91;;;12.08;93.10
62508;BME280;48556;51.972;4.624;2022-12-20T08:49:28;101028.25;;;12.44;93.56
62508;BME280;48556;51.972;4.624;2022-12-20T08:51:54;101020.44;;;12.39;93.03
62508;BME280;48556;51.972;4.624;2022-12-20T08:54:20;101024.81;;;12.39;93.66
62508;BME280;48556;51.972;4.624;2022-12-20T08:56:45;101022.38;;;12.28;93.95
62508;BME280;48556;51.972;4.624;2022-12-20T08:59:11;101031.94;;;12.34;94.75
62508;BME280;48556;51.972;4.624;2022-12-20T09:01:37;101024.63;;;11.95;96.18
62508;BME280;48556;51.972;4.624;2022-12-20T09:04:03;101026.19;;;12.08;95.88
62508;BME280;48556;51.972;4.624;2022-12-20T09:06:29;101019.22;;;12.04;97.08
62508;BME280;48556;51.972;4.624;2022-12-20T09:08:54;101023.44;;;12.14;96.55
62508;BME280;48556;51.972;4.624;2022-12-20T09:11:23;101023.97;;;12.37;96.09
62508;BME280;48556;51.972;4.624;2022-12-20T09:14:09;101029.38;;;12.29;96.88
62508;BME280;48556;51.972;4.624;2022-12-20T09:16:34;101033.22;;;12.06;97.96
62508;BME280;48556;51.972;4.624;2022-12-20T09:19:01;101032.53;;;11.95;99.51
62508;BME280;48556;51.972;4.624;2022-12-20T09:21:27;101026.41;;;11.90;100.00
62508;BME280;48556;51.972;4.624;2022-12-20T09:23:55;101038.88;;;11.78;100.00
62508;BME280;48556;51.972;4.624;2022-12-20T09:26:23;101035.78;;;12.14;100.00
62508;BME280;48556;51.972;4.624;2022-12-20T09:28:49;101028.56;;;12.25;98.85
62508;BME280;48556;51.972;4.624;2022-12-20T09:31:18;101029.19;;;11.80;100.00
62508;BME280;48556;51.972;4.624;2022-12-20T09:33:44;101025.56;;;11.89;100.00
62508;BME280;48556;51.972;4.624;2022-12-20T09:36:12;101029.94;;;11.90;100.00
62508;BME280;48556;51.972;4.624;2022-12-20T09:38:38;101033.44;;;11.91;100.00
62508;BME280;48556;51.972;4.624;2022-12-20T09:41:07;101029.94;;;11.90;100.00
62508;BME280;48556;51.972;4.624;2022-12-20T09:43:39;101032.06;;;11.62;100.00
62508;BME280;48556;51.972;4.624;2022-12-20T09:46:06;101030.97;;;11.77;100.00
62508;BME280;48556;51.972;4.624;2022-12-20T09:48:38;101019.38;;;11.92;100.00
62508;BME280;48556;51.972;4.624;2022-12-20T09:51:42;101032.44;;;12.00;100.00
62508;BME280;48556;51.972;4.624;2022-12-20T09:54:32;101030.13;;;11.76;100.00
62508;BME280;48556;51.972;4.624;2022-12-20T10:00:23;101028.06;;;12.00;100.00
62508;BME280;48556;51.972;4.624;2022-12-20T10:02:49;101029.88;;;11.96;100.00
62508;BME280;48556;51.972;4.624;2022-12-20T10:11:07;101029.88;;;11.95;100.00
62508;BME280;48556;51.972;4.624;2022-12-20T10:19:26;101025.44;;;11.97;100.00
62508;BME280;48556;51.972;4.624;2022-12-20T10:22:19;101019.38;;;11.89;100.00
62508;BME280;48556;51.972;4.624;2022-12-20T10:25:19;101014.91;;;12.00;100.00
62508;BME280;48556;51.972;4.624;2022-12-20T10:27:46;101011.06;;;12.20;100.00
62508;BME280;48556;51.972;4.624;2022-12-20T10:30:25;101022.03;;;11.90;100.00
62508;BME280;48556;51.972;4.624;2022-12-20T10:32:54;101017.00;;;12.33;100.00
62508;BME280;48556;51.972;4.624;2022-12-20T10:35:33;101022.56;;;12.16;100.00
62508;BME280;48556;51.972;4.624;2022-12-20T10:38:03;101015.44;;;12.21;100.00
62508;BME280;48556;51.972;4.624;2022-12-20T10:40:34;101012.25;;;12.00;100.00
62508;BME280;48556;51.972;4.624;2022-12-20T10:43:02;101022.75;;;12.03;100.00
62508;BME280;48556;51.972;4.624;2022-12-20T10:45:38;101006.03;;;12.03;100.00
62508;BME280;48556;51.972;4.624;2022-12-20T10:50:59;101009.78;;;11.86;100.00
62508;BME280;48556;51.972;4.624;2022-12-20T10:53:26;101009.19;;;11.66;100.00
62508;BME280;48556;51.972;4.624;2022-12-20T10:56:06;101016.84;;;11.83;100.00
62508;BME280;48556;51.972;4.624;2022-12-20T10:58:37;101014.03;;;11.98;100.00
62508;BME280;48556;51.972;4.624;2022-12-20T11:01:35;100997.84;;;12.23;100.00
62508;BME280;48556;51.972;4.624;2022-12-20T11:04:04;101000.81;;;12.00;100.00
62508;BME280;48556;51.972;4.624;2022-12-20T11:14:23;101003.72;;;12.39;100.00
62508;BME280;48556;51.972;4.624;2022-12-20T11:16:52;100989.94;;;12.23;100.00
62508;BME280;48556;51.972;4.624;2022-12-20T11:20:03;101003.06;;;12.26;100.00
62508;BME280;48556;51.972;4.624;2022-12-20T11:27:51;100993.00;;;11.93;100.00
62508;BME280;48556;51.972;4.624;2022-12-20T11:30:38;100978.84;;;12.02;100.00
62508;BME280;48556;51.972;4.624;2022-12-20T11:38:42;100990.47;;;11.86;100.00
62508;BME280;48556;51.972;4.624;2022-12-20T11:46:39;100980.38;;;12.16;100.00
62508;BME280;48556;51.972;4.624;2022-12-20T11:52:34;100978.88;;;11.99;100.00
62508;BME280;48556;51.972;4.624;2022-12-20T11:55:21;100974.56;;;11.92;100.00
62508;BME280;48556;51.972;4.624;2022-12-20T12:00:43;100984.25;;;11.94;100.00
62508;BME280;48556;51.972;4.624;2022-12-20T12:03:35;100979.88;;;11.89;100.00
62508;BME280;48556;51.972;4.624;2022-12-20T12:06:19;100976.09;;;12.10;100.00
62508;BME280;48556;51.972;4.624;2022-12-20T12:11:36;100974.59;;;12.46;100.00
62508;BME280;48556;51.972;4.624;2022-12-20T12:14:05;100984.88;;;12.62;100.00
62508;BME280;48556;51.972;4.624;2022-12-20T12:16:39;100977.06;;;12.57;100.00
62508;BME280;48556;51.972;4.624;2022-12-20T12:19:11;100974.47;;;12.53;100.00
62508;BME280;48556;51.972;4.624;2022-12-20T12:21:43;100980.00;;;12.37;100.00
62508;BME280;48556;51.972;4.624;2022-12-20T12:24:34;100980.28;;;12.22;100.00
62508;BME280;48556;51.972;4.624;2022-12-20T12:27:06;100976.63;;;12.29;100.00
62508;BME280;48556;51.972;4.624;2022-12-20T12:29:38;100969.41;;;12.40;100.00
62508;BME280;48556;51.972;4.624;2022-12-20T12:34:58;100979.03;;;12.43;100.00
62508;BME280;48556;51.972;4.624;2022-12-20T12:45:48;100980.91;;;12.38;100.00
62508;BME280;48556;51.972;4.624;2022-12-20T12:48:29;100970.66;;;12.19;100.00
62508;BME280;48556;51.972;4.624;2022-12-20T12:51:01;100979.28;;;12.29;100.00
62508;BME280;48556;51.972;4.624;2022-12-20T12:53:40;100973.69;;;12.46;100.00
62508;BME280;48556;51.972;4.624;2022-12-20T13:04:20;100974.94;;;12.25;100.00
62508;BME280;48556;51.972;4.624;2022-12-20T13:11:51;100975.84;;;12.25;100.00
62508;BME280;48556;51.972;4.624;2022-12-20T13:16:52;100973.06;;;12.33;100.00
62508;BME280;48556;51.972;4.624;2022-12-20T13:22:37;100980.53;;;12.58;100.00
62508;BME280;48556;51.972;4.624;2022-12-20T13:37:55;100970.34;;;12.39;100.00
62508;BME280;48556;51.972;4.624;2022-12-20T13:40:44;100977.53;;;12.29;100.00
62508;BME280;48556;51.972;4.624;2022-12-20T13:48:48;100966.22;;;12.23;100.00
62508;BME280;48556;51.972;4.624;2022-12-20T13:51:20;100951.00;;;12.37;100.00
62508;BME280;48556;51.972;4.624;2022-12-20T13:54:01;100959.38;;;12.61;100.00
62508;BME280;48556;51.972;4.624;2022-12-20T13:59:03;100966.75;;;12.42;100.00
62508;BME280;48556;51.972;4.624;2022-12-20T14:01:31;100971.06;;;12.47;100.00
62508;BME280;48556;51.972;4.624;2022-12-20T14:04:01;100968.66;;;12.34;100.00
62508;BME280;48556;51.972;4.624;2022-12-20T14:06:28;100973.56;;;12.55;100.00
62508;BME280;48556;51.972;4.624;2022-12-20T14:08:54;100966.50;;;12.56;100.00
62508;BME280;48556;51.972;4.624;2022-12-20T14:11:25;100977.75;;;12.67;100.00
62508;BME280;48556;51.972;4.624;2022-12-20T14:13:57;100970.69;;;12.68;100.00
62508;BME280;48556;51.972;4.624;2022-12-20T14:16:26;100978.28;;;12.85;100.00
62508;BME280;48556;51.972;4.624;2022-12-20T14:19:05;100979.13;;;12.38;100.00
62508;BME280;48556;51.972;4.624;2022-12-20T14:21:40;100972.84;;;12.45;100.00
62508;BME280;48556;51.972;4.624;2022-12-20T14:24:17;100982.84;;;12.25;100.00
62508;BME280;48556;51.972;4.624;2022-12-20T14:26:51;100983.28;;;12.53;100.00
62508;BME280;48556;51.972;4.624;2022-12-20T14:29:25;100976.97;;;12.60;100.00
62508;BME280;48556;51.972;4.624;2022-12-20T14:31:52;100975.03;;;12.72;100.00
62508;BME280;48556;51.972;4.624;2022-12-20T14:34:25;100977.13;;;12.51;100.00
62508;BME280;48556;51.972;4.624;2022-12-20T14:42:31;100972.03;;;12.40;100.00
62508;BME280;48556;51.972;4.624;2022-12-20T14:45:20;100968.72;;;12.29;100.00
62508;BME280;48556;51.972;4.624;2022-12-20T14:47:55;100958.44;;;12.13;100.00
62508;BME280;48556;51.972;4.624;2022-12-20T14:50:29;100959.34;;;12.62;100.00
62508;BME280;48556;51.972;4.624;2022-12-20T14:52:56;100963.59;;;12.21;100.00
62508;BME280;48556;51.972;4.624;2022-12-20T14:55:31;100973.97;;;12.30;100.00
62508;BME280;48556;51.972;4.624;2022-12-20T14:57:58;100962.94;;;12.58;100.00
62508;BME280;48556;51.972;4.624;2022-12-20T15:00:27;100962.94;;;12.58;100.00
62508;BME280;48556;51.972;4.624;2022-12-20T15:13:42;100963.69;;;12.15;100.00
62508;BME280;48556;51.972;4.624;2022-12-20T15:16:20;100967.97;;;12.21;100.00
62508;BME280;48556;51.972;4.624;2022-12-20T15:18:50;100969.97;;;12.06;100.00
62508;BME280;48556;51.972;4.624;2022-12-20T15:23:54;100958.56;;;12.59;100.00